Time;durP1;ratioP1;P1;durP2;ratioP2;P2;SDS_P1;SDS_P2;PMS_P1;PMS_P2;Temp;Humidity;BMP_temperature;BMP_pressure;BME280_temperature;BME280_humidity;BME280_pressure;Samples;Min_cycle;Max_cycle;Signal;HPM_P1;HPM_P2
2023/06/16 00:01:23;;;;;;;8.13;5.55;;;;;;;20.32;nan;-24382.06;4992552;28;20714;-58
2023/06/16 00:03:49;;;;;;;7.57;4.47;;;;;;;20.03;nan;-23725.19;4992232;28;20204;-58
2023/06/16 00:06:16;;;;;;;6.90;4.30;;;;;;;19.97;nan;-21458.25;4992178;28;20173;-59
2023/06/16 00:08:44;;;;;;;7.13;4.13;;;;;;;20.12;nan;-20166.09;4992791;28;20216;-58
2023/06/16 00:11:13;;;;;;;6.60;4.28;;;;;;;20.09;nan;-20489.41;4992659;28;20161;-58
2023/06/16 00:13:38;;;;;;;6.50;4.55;;;;;;;20.01;nan;-20811.44;4992156;28;20164;-58
2023/06/16 00:16:04;;;;;;;6.78;4.70;;;;;;;19.79;nan;-22425.06;4992461;28;20556;-63
2023/06/16 00:18:31;;;;;;;5.85;4.15;;;;;;;19.73;nan;-23070.56;4993865;28;20262;-59
2023/06/16 00:21:00;;;;;;;7.85;4.50;;;;;;;19.45;nan;-23386.56;4996018;28;20177;-58
2023/06/16 00:23:26;;;;;;;8.52;3.97;;;;;;;19.72;nan;-23393.63;4996379;28;20199;-59
2023/06/16 00:25:52;;;;;;;6.85;4.53;;;;;;;19.36;nan;-23707.69;4996459;28;20176;-58
2023/06/16 00:28:19;;;;;;;6.82;4.25;;;;;;;19.69;nan;-23069.41;4996369;28;20239;-59
2023/06/16 00:30:45;;;;;;;5.43;3.80;;;;;;;19.58;nan;-23066.72;4995994;28;20547;-58
2023/06/16 00:33:10;;;;;;;7.25;4.55;;;;;;;19.21;nan;-23703.66;4995897;28;20176;-58
2023/06/16 00:35:36;;;;;;;6.93;4.47;;;;;;;19.57;nan;-22419.50;4996447;28;20246;-59
2023/06/16 00:38:02;;;;;;;5.93;3.80;;;;;;;19.74;nan;-22423.69;4996011;28;20651;-59
2023/06/16 00:40:27;;;;;;;7.30;4.38;;;;;;;19.29;nan;-22412.72;4996176;28;20176;-62
2023/06/16 00:42:57;;;;;;;7.20;4.72;;;;;;;19.24;nan;-23704.34;4996013;28;20424;-59
2023/06/16 00:45:23;;;;;;;8.38;3.97;;;;;;;19.16;nan;-24025.41;4996100;28;20165;-58
2023/06/16 00:47:50;;;;;;;7.10;4.30;;;;;;;18.94;nan;-24342.50;4995868;28;20561;-59
2023/06/16 00:50:18;;;;;;;7.57;4.53;;;;;;;18.76;nan;-24339.25;4996325;28;20199;-59
2023/06/16 00:52:44;;;;;;;6.60;4.40;;;;;;;15.56;nan;-24251.00;4996174;28;20198;-58
2023/06/16 00:55:11;;;;;;;7.30;4.60;;;;;;;18.06;nan;-24320.00;4995648;28;20540;-59
2023/06/16 00:57:37;;;;;;;7.72;4.70;;;;;;;18.54;nan;-24333.38;4995853;28;20169;-59
2023/06/16 01:00:06;;;;;;;9.35;4.55;;;;;;;18.45;nan;-24330.88;4995800;28;20703;-58
2023/06/16 01:02:32;;;;;;;8.52;4.80;;;;;;;18.24;nan;-24325.03;4995438;28;20197;-58
2023/06/16 01:04:58;;;;;;;8.85;5.88;;;;;;;18.63;nan;-24335.63;4995906;28;20206;-59
2023/06/16 01:07:43;;;;;;;8.48;4.80;;;;;;;18.48;nan;-24331.56;4996082;28;20204;-59
2023/06/16 01:10:25;;;;;;;9.68;4.78;;;;;;;18.67;nan;-24336.72;4995987;28;20193;-59
2023/06/16 01:13:17;;;;;;;9.13;4.60;;;;;;;18.84;nan;-24341.47;4995072;28;20263;-59
2023/06/16 01:15:45;;;;;;;8.10;4.82;;;;;;;18.62;nan;-24335.34;4995318;28;20215;-58
2023/06/16 01:18:14;;;;;;;6.10;4.30;;;;;;;18.61;nan;-24335.06;4995354;28;20264;-58
2023/06/16 01:21:08;;;;;;;9.02;4.45;;;;;;;18.74;nan;-24338.69;4995408;28;20172;-59
2023/06/16 01:23:52;;;;;;;8.18;4.80;;;;;;;18.68;nan;-24337.00;4967941;28;20626;-58
2023/06/16 01:26:22;;;;;;;6.90;4.68;;;;;;;18.66;nan;-24336.59;4995904;28;20383;-58
2023/06/16 01:28:49;;;;;;;6.50;4.43;;;;;;;18.59;nan;-24334.50;5001905;28;20184;-61
2023/06/16 01:31:17;;;;;;;7.45;4.50;;;;;;;18.48;nan;-24331.56;4994243;28;20187;-58
2023/06/16 01:33:45;;;;;;;7.15;4.80;;;;;;;18.58;nan;-24334.38;4994404;28;20180;-58
2023/06/16 01:36:12;;;;;;;7.72;4.72;;;;;;;18.54;nan;-24333.38;4995409;28;20173;-58
2023/06/16 01:38:39;;;;;;;7.18;4.68;;;;;;;18.48;nan;-24331.72;4995173;28;20177;-59
2023/06/16 01:41:06;;;;;;;7.65;4.80;;;;;;;18.52;nan;-24332.81;4994669;28;20231;-58
2023/06/16 01:43:33;;;;;;;10.13;4.82;;;;;;;18.63;nan;-24335.75;4994831;28;20200;-58
2023/06/16 01:45:59;;;;;;;7.57;4.85;;;;;;;18.65;nan;-24336.19;4994697;28;20702;-58
2023/06/16 01:48:25;;;;;;;10.00;5.40;;;;;;;18.78;nan;-24339.78;4994318;28;20181;-58
2023/06/16 01:50:51;;;;;;;6.57;4.47;;;;;;;18.48;nan;-24331.72;4995132;28;20177;-59
2023/06/16 01:53:17;;;;;;;6.55;4.88;;;;;;;18.40;nan;-24329.34;4995103;28;20169;-59
2023/06/16 01:55:49;;;;;;;7.60;4.80;;;;;;;18.68;nan;-24337.00;4994700;28;20188;-57
2023/06/16 01:58:17;;;;;;;6.95;4.57;;;;;;;18.65;nan;-24336.19;4994457;28;20177;-58
2023/06/16 02:00:54;;;;;;;10.50;5.78;;;;;;;18.62;nan;-24335.47;4994549;28;20176;-57
2023/06/16 02:03:26;;;;;;;9.10;4.75;;;;;;;18.61;nan;-24335.06;4994621;28;20200;-58
2023/06/16 02:05:53;;;;;;;8.77;5.05;;;;;;;18.59;nan;-24334.50;4994814;28;20211;-59
2023/06/16 02:08:23;;;;;;;7.70;5.10;;;;;;;18.48;nan;-24331.56;4994270;28;20722;-58
2023/06/16 02:10:49;;;;;;;8.40;5.30;;;;;;;18.58;nan;-24334.22;4994558;28;20586;-58
2023/06/16 02:13:14;;;;;;;10.23;5.13;;;;;;;18.38;nan;-24328.94;4976750;28;20211;-59
2023/06/16 02:15:40;;;;;;;10.52;4.90;;;;;;;18.56;nan;-24333.66;4994227;28;20205;-58
2023/06/16 02:18:09;;;;;;;8.07;4.95;;;;;;;18.64;nan;-24336.03;4994563;28;20153;-59
2023/06/16 02:20:36;;;;;;;7.13;4.55;;;;;;;18.37;nan;-24328.50;4994179;28;20180;-59
2023/06/16 02:23:01;;;;;;;7.38;4.78;;;;;;;18.49;nan;-24332.00;4994125;28;20203;-58
2023/06/16 02:25:27;;;;;;;7.80;5.15;;;;;;;18.50;nan;-24332.13;4994337;28;20173;-59
2023/06/16 02:27:52;;;;;;;7.03;4.88;;;;;;;18.46;nan;-24331.00;4993907;28;20558;-58
2023/06/16 02:30:18;;;;;;;8.65;5.35;;;;;;;18.44;nan;-24330.59;4994288;28;20177;-58
2023/06/16 02:32:43;;;;;;;7.90;5.20;;;;;;;18.48;nan;-24331.72;4993777;28;20240;-58
2023/06/16 02:35:09;;;;;;;8.32;5.40;;;;;;;18.35;nan;-24328.09;4993844;28;20255;-59
2023/06/16 02:37:36;;;;;;;9.43;4.75;;;;;;;18.39;nan;-24329.22;4993987;28;20207;-58
2023/06/16 02:40:05;;;;;;;7.75;5.07;;;;;;;18.44;nan;-24330.59;4993594;28;20562;-58
2023/06/16 02:42:32;;;;;;;8.07;5.20;;;;;;;18.22;nan;-24324.34;4992887;28;20661;-57
2023/06/16 02:44:57;;;;;;;8.90;5.80;;;;;;;18.40;nan;-24329.47;4993727;28;20664;-58
2023/06/16 02:47:23;;;;;;;8.38;4.95;;;;;;;18.20;nan;-24323.78;4993899;28;20272;-58
2023/06/16 02:49:48;;;;;;;9.00;5.80;;;;;;;18.43;nan;-24330.31;4992095;28;20177;-58
2023/06/16 02:52:14;;;;;;;9.80;5.40;;;;;;;18.37;nan;-24328.50;4993014;28;20322;-58
2023/06/16 02:54:40;;;;;;;8.75;5.45;;;;;;;18.27;nan;-24325.72;4992842;28;20180;-58
2023/06/16 02:57:07;;;;;;;7.82;5.20;;;;;;;18.48;nan;-24331.56;4992765;28;20183;-59
2023/06/16 02:59:33;;;;;;;8.45;4.97;;;;;;;18.38;nan;-24326.91;4992978;28;20243;-58
2023/06/16 03:01:58;;;;;;;6.97;4.75;;;;;;;18.33;nan;-24327.41;4993081;28;20255;-58
2023/06/16 03:04:25;;;;;;;7.13;4.68;;;;;;;18.49;nan;-24329.97;4993138;28;20263;-57
2023/06/16 03:06:57;;;;;;;7.22;4.65;;;;;;;18.34;nan;-24325.94;4993021;28;20172;-59
2023/06/16 03:09:23;;;;;;;7.13;5.15;;;;;;;18.59;nan;-24332.63;4992810;28;20188;-59
2023/06/16 03:11:49;;;;;;;7.88;5.20;;;;;;;18.62;nan;-24010.81;5000399;28;20666;-59
2023/06/16 03:14:14;;;;;;;7.50;4.93;;;;;;;18.69;nan;-24012.72;4993079;28;20214;-58
2023/06/16 03:16:40;;;;;;;9.35;5.47;;;;;;;18.80;nan;-24015.72;4993055;28;20315;-58
2023/06/16 03:19:05;;;;;;;11.10;4.88;;;;;;;18.71;nan;-23690.41;4992878;28;20600;-58
2023/06/16 03:21:31;;;;;;;7.90;4.97;;;;;;;18.68;nan;-23689.47;4992450;28;20207;-58
2023/06/16 03:23:56;;;;;;;7.78;4.90;;;;;;;18.83;nan;-23693.50;4993123;28;20228;-58
2023/06/16 03:26:22;;;;;;;7.60;5.05;;;;;;;19.19;nan;-22410.38;4992536;28;20212;-58
2023/06/16 03:28:47;;;;;;;7.97;5.30;;;;;;;19.27;nan;-21442.31;4992973;28;20223;-59
2023/06/16 03:31:13;;;;;;;9.05;5.95;;;;;;;19.26;nan;-21765.44;4996284;28;20249;-58
2023/06/16 03:33:39;;;;;;;8.70;5.55;;;;;;;19.12;nan;-22731.72;5001782;28;20191;-58
2023/06/16 03:36:05;;;;;;;10.65;5.72;;;;;;;19.03;nan;-21436.78;4992957;28;20223;-57
2023/06/16 03:38:30;;;;;;;13.20;5.70;;;;;;;18.99;nan;-22405.44;4992977;28;20185;-58
2023/06/16 03:40:55;;;;;;;10.80;6.07;;;;;;;19.34;nan;-22090.72;4992324;28;20528;-57
2023/06/16 03:43:21;;;;;;;9.23;5.70;;;;;;;19.03;nan;-22729.56;4992737;28;20204;-58
2023/06/16 03:45:46;;;;;;;10.25;5.93;;;;;;;19.22;nan;-23380.78;5000674;28;20168;-57
2023/06/16 03:48:12;;;;;;;8.35;5.25;;;;;;;18.57;nan;-23363.84;4992770;28;20637;-58
2023/06/16 03:50:37;;;;;;;9.95;6.25;;;;;;;19.21;nan;-23380.50;4993447;28;20181;-58
2023/06/16 03:53:03;;;;;;;9.60;6.00;;;;;;;19.47;nan;-21770.28;4999696;28;20428;-58
2023/06/16 03:55:29;;;;;;;9.35;5.47;;;;;;;19.37;nan;-22414.81;4999990;28;20180;-58
2023/06/16 03:57:54;;;;;;;8.38;5.55;;;;;;;19.23;nan;-22087.94;4975728;28;20464;-58
2023/06/16 04:00:20;;;;;;;10.00;5.95;;;;;;;19.46;nan;-21446.47;4992546;28;20180;-58
2023/06/16 04:02:45;;;;;;;8.02;5.03;;;;;;;18.82;nan;-21431.91;4992380;28;20204;-58
2023/06/16 04:05:10;;;;;;;11.30;5.68;;;;;;;19.70;nan;-19186.03;4992726;28;20177;-58
2023/06/16 04:07:36;;;;;;;10.65;5.65;;;;;;;19.53;nan;-20477.38;4992512;28;20176;-58
2023/06/16 04:10:02;;;;;;;8.82;5.50;;;;;;;19.32;nan;-21443.34;4992197;28;20168;-59
2023/06/16 04:12:27;;;;;;;10.68;5.75;;;;;;;16.50;nan;-21056.84;4992851;28;20252;-58
2023/06/16 04:14:53;;;;;;;8.68;5.82;;;;;;;19.48;nan;-21770.41;4992700;28;20191;-58
2023/06/16 04:17:18;;;;;;;12.40;6.40;;;;;;;19.49;nan;-21770.66;4991712;28;20199;-58
2023/06/16 04:19:46;;;;;;;10.85;5.85;;;;;;;19.83;nan;-19188.53;4991685;28;20165;-59
2023/06/16 04:22:12;;;;;;;11.40;6.50;;;;;;;19.63;nan;-19508.34;4992160;28;20180;-59
2023/06/16 04:24:37;;;;;;;8.30;5.50;;;;;;;19.57;nan;-19830.97;4990992;28;20165;-58
2023/06/16 04:27:03;;;;;;;10.88;5.70;;;;;;;19.97;nan;-18867.16;4992168;28;20283;-58
2023/06/16 04:29:28;;;;;;;10.57;6.25;;;;;;;19.77;nan;-19511.25;4991597;28;20247;-58
2023/06/16 04:31:59;;;;;;;10.50;5.80;;;;;;;19.87;nan;-18865.28;4991926;28;20169;-57
2023/06/16 04:34:25;;;;;;;9.20;5.88;;;;;;;19.83;nan;-16920.38;4991780;28;20335;-58
2023/06/16 04:36:51;;;;;;;9.50;6.28;;;;;;;20.42;nan;-16605.03;4991580;28;20181;-59
2023/06/16 04:39:16;;;;;;;7.97;5.63;;;;;;;20.66;nan;-13036.03;4991542;28;20173;-58
2023/06/16 04:41:42;;;;;;;10.82;5.35;;;;;;;21.53;nan;-9462.59;4991734;28;20259;-57
2023/06/16 04:44:08;;;;;;;9.32;5.18;;;;;;;22.67;nan;7876.75;4989189;28;20667;-57
2023/06/16 04:46:34;;;;;;;8.55;5.15;;;;;;;23.22;nan;24350.53;4976811;28;20549;-58
2023/06/16 04:49:00;;;;;;;8.15;5.30;;;;;;;22.89;nan;33582.31;4991362;28;20169;-59
2023/06/16 04:51:28;;;;;;;9.48;5.68;;;;;;;23.03;nan;29293.50;4992048;28;20183;-58
2023/06/16 04:53:54;;;;;;;9.73;5.90;;;;;;;23.13;nan;31282.91;4991572;28;20180;-58
2023/06/16 04:56:19;;;;;;;8.23;5.53;;;;;;;23.03;nan;37191.47;4982172;28;20178;-59
2023/06/16 04:58:45;;;;;;;10.38;5.32;;;;;;;22.93;nan;30939.44;4972343;28;20180;-59
2023/06/16 05:01:11;;;;;;;8.75;5.93;;;;;;;23.38;nan;41483.28;4972345;28;20162;-58
2023/06/16 05:03:36;;;;;;;8.25;5.35;;;;;;;24.33;nan;50735.66;4971816;28;20197;-58
2023/06/16 05:06:02;;;;;;;10.15;6.15;;;;;;;23.59;nan;51183.72;4975395;28;20657;-59
2023/06/16 05:08:28;;;;;;;8.80;5.50;;;;;;;24.31;nan;53140.00;4975541;28;20264;-58
2023/06/16 05:10:54;;;;;;;8.02;5.82;;;;;;;24.63;nan;54589.91;4975818;28;20271;-58
2023/06/16 05:13:20;;;;;;;9.98;5.32;;;;;;;24.54;nan;54906.19;4975767;28;20255;-59
2023/06/16 05:15:45;;;;;;;9.25;6.00;;;;;;;24.19;nan;55394.84;4975769;28;20169;-59
2023/06/16 05:18:11;;;;;;;8.95;5.65;;;;;;;24.64;nan;54919.50;4975841;28;20170;-59
2023/06/16 05:20:36;;;;;;;8.75;5.10;;;;;;;24.68;nan;56522.13;4975329;28;20701;-59
2023/06/16 05:23:03;;;;;;;8.88;5.80;;;;;;;24.64;nan;55819.31;4973852;28;20233;-59
2023/06/16 05:25:29;;;;;;;9.55;5.95;;;;;;;24.59;nan;57562.19;4975774;28;20273;-57
2023/06/16 05:27:55;;;;;;;9.40;5.63;;;;;;;24.18;nan;56019.88;4975629;28;20189;-58
2023/06/16 05:30:20;;;;;;;10.45;5.40;;;;;;;24.40;nan;56829.31;4975490;28;20656;-58
2023/06/16 05:32:46;;;;;;;7.60;5.57;;;;;;;24.53;nan;57051.69;4974516;28;20173;-59
2023/06/16 05:35:11;;;;;;;10.13;5.72;;;;;;;24.68;nan;56574.31;4975077;28;20196;-59
2023/06/16 05:37:36;;;;;;;9.13;5.60;;;;;;;25.30;nan;57986.75;4975326;28;20166;-57
2023/06/16 05:40:02;;;;;;;8.13;4.82;;;;;;;25.51;nan;58515.81;4975271;28;20297;-59
2023/06/16 05:42:27;;;;;;;8.30;5.90;;;;;;;25.73;nan;59111.78;4975649;28;20229;-59
2023/06/16 05:44:53;;;;;;;7.35;5.03;;;;;;;26.58;nan;59850.28;4975125;28;20655;-59
2023/06/16 05:47:19;;;;;;;9.07;5.00;;;;;;;26.03;nan;60259.44;4975330;28;20184;-59
2023/06/16 05:49:44;;;;;;;7.15;5.00;;;;;;;25.60;nan;59816.84;4975286;28;20169;-59
2023/06/16 05:52:10;;;;;;;8.65;5.57;;;;;;;24.52;nan;59303.44;4975211;28;20268;-59
2023/06/16 05:54:35;;;;;;;9.18;5.50;;;;;;;23.91;nan;57998.75;4975696;28;20195;-59
2023/06/16 05:57:02;;;;;;;11.85;6.18;;;;;;;23.47;nan;56587.31;4975511;28;20185;-59
2023/06/16 05:59:28;;;;;;;9.05;5.32;;;;;;;23.41;nan;55632.75;4975185;28;20720;-59
2023/06/16 06:01:54;;;;;;;9.27;6.07;;;;;;;23.26;nan;54751.25;4974880;28;20633;-59
2023/06/16 06:04:26;;;;;;;8.48;5.57;;;;;;;23.43;nan;54565.56;4974356;28;20200;-59
2023/06/16 06:06:51;;;;;;;10.77;6.28;;;;;;;23.71;nan;53885.84;4974144;28;20189;-59
2023/06/16 06:09:16;;;;;;;9.02;5.95;;;;;;;23.83;nan;53823.97;4974320;28;20200;-60
2023/06/16 06:11:42;;;;;;;9.45;6.18;;;;;;;24.04;nan;54483.19;4974470;28;20169;-59
2023/06/16 06:14:07;;;;;;;10.98;6.15;;;;;;;23.58;nan;54283.53;4974696;28;20162;-59
2023/06/16 06:16:33;;;;;;;10.05;5.95;;;;;;;23.67;nan;54209.31;4973534;28;20185;-59
2023/06/16 06:18:59;;;;;;;8.80;5.80;;;;;;;24.22;nan;54685.94;4973969;28;20173;-62
2023/06/16 06:21:24;;;;;;;11.00;6.07;;;;;;;23.98;nan;57675.13;4972650;28;20189;-59
2023/06/16 06:23:51;;;;;;;10.30;6.03;;;;;;;24.14;nan;56388.47;4974508;28;20288;-59
2023/06/16 06:26:17;;;;;;;10.15;6.28;;;;;;;24.20;nan;56871.91;4974296;28;20174;-59
2023/06/16 06:28:43;;;;;;;9.90;6.45;;;;;;;23.83;nan;56689.13;4974107;28;20176;-60
2023/06/16 06:31:08;;;;;;;11.57;6.53;;;;;;;24.08;nan;57466.75;4974009;28;20173;-59
2023/06/16 06:33:34;;;;;;;8.75;6.03;;;;;;;23.83;nan;57914.06;4973564;28;20173;-60
2023/06/16 06:35:59;;;;;;;10.85;6.63;;;;;;;23.82;nan;58062.09;4973440;28;20233;-59
2023/06/16 06:38:25;;;;;;;12.38;6.97;;;;;;;23.29;nan;56565.81;4973352;28;20177;-59
2023/06/16 06:40:50;;;;;;;11.88;6.80;;;;;;;23.56;nan;56588.41;4973494;28;20177;-60
2023/06/16 06:43:16;;;;;;;10.60;6.82;;;;;;;23.99;nan;57018.72;4972984;28;20637;-59
2023/06/16 06:45:43;;;;;;;10.75;6.75;;;;;;;24.72;nan;57728.94;4973557;28;20181;-59
2023/06/16 06:48:09;;;;;;;9.50;6.68;;;;;;;24.77;nan;58188.53;4973815;28;20253;-58
2023/06/16 06:50:34;;;;;;;11.98;6.65;;;;;;;24.75;nan;58262.63;4973157;28;20216;-59
2023/06/16 06:53:00;;;;;;;11.43;6.15;;;;;;;25.01;nan;58624.94;4973633;28;20558;-58
2023/06/16 06:55:25;;;;;;;13.10;7.70;;;;;;;24.77;nan;58890.91;4973409;28;20275;-59
2023/06/16 06:57:51;;;;;;;11.68;7.43;;;;;;;24.88;nan;58855.84;4973243;28;20185;-59
2023/06/16 07:00:17;;;;;;;10.75;6.80;;;;;;;24.81;nan;59078.63;4973551;28;20181;-59
2023/06/16 07:02:43;;;;;;;9.68;6.70;;;;;;;24.77;nan;58894.06;4973801;28;20228;-60
2023/06/16 07:05:08;;;;;;;12.45;7.97;;;;;;;23.95;nan;58954.84;4973354;28;20641;-60
2023/06/16 07:07:34;;;;;;;13.88;7.78;;;;;;;23.75;nan;58409.66;4973706;28;20177;-61
2023/06/16 07:10:00;;;;;;;13.05;7.53;;;;;;;23.71;nan;57974.75;4973633;28;20256;-60
2023/06/16 07:12:25;;;;;;;12.32;7.18;;;;;;;23.71;nan;57500.44;4973941;28;20265;-59
2023/06/16 07:14:51;;;;;;;13.48;7.70;;;;;;;23.62;nan;56845.28;4973891;28;20201;-58
2023/06/16 07:17:16;;;;;;;12.02;7.38;;;;;;;23.59;nan;56930.69;4973622;28;20173;-59
2023/06/16 07:19:42;;;;;;;11.52;7.38;;;;;;;24.13;nan;58478.78;4973348;28;20625;-59
2023/06/16 07:22:07;;;;;;;13.60;7.88;;;;;;;23.08;nan;58324.97;4973761;28;20189;-58
2023/06/16 07:24:33;;;;;;;12.55;7.55;;;;;;;23.60;nan;58002.06;4973572;28;20259;-58
2023/06/16 07:27:01;;;;;;;12.93;7.53;;;;;;;23.16;nan;57416.47;4973580;28;20223;-59
2023/06/16 07:29:28;;;;;;;14.73;8.00;;;;;;;23.51;nan;56726.94;4972813;28;20170;-61
2023/06/16 07:31:53;;;;;;;11.90;7.63;;;;;;;23.90;nan;56873.69;4973488;28;20640;-60
2023/06/16 07:34:19;;;;;;;10.82;7.15;;;;;;;23.90;nan;57789.13;4973394;28;20177;-60
2023/06/16 07:36:44;;;;;;;11.75;7.15;;;;;;;24.03;nan;57502.63;4973610;28;20651;-59
2023/06/16 07:39:10;;;;;;;11.23;6.60;;;;;;;24.21;nan;58398.19;4973084;28;20740;-59
2023/06/16 07:41:35;;;;;;;10.15;6.63;;;;;;;24.40;nan;58053.34;4973290;28;20233;-59
2023/06/16 07:44:01;;;;;;;11.00;6.97;;;;;;;24.77;nan;59217.34;4973131;28;20204;-59
2023/06/16 07:46:26;;;;;;;10.25;6.78;;;;;;;24.64;nan;60016.44;4972897;28;20180;-59
2023/06/16 07:48:52;;;;;;;12.80;6.70;;;;;;;24.57;nan;60308.47;4972647;28;20208;-59
2023/06/16 07:51:17;;;;;;;13.20;7.57;;;;;;;24.19;nan;59416.16;4973194;28;20187;-58
2023/06/16 07:53:43;;;;;;;12.55;7.40;;;;;;;24.75;nan;59732.28;4972994;28;20181;-59
2023/06/16 07:56:09;;;;;;;12.75;7.13;;;;;;;24.46;nan;60242.00;4973254;28;20169;-59
2023/06/16 07:58:38;;;;;;;11.50;6.60;;;;;;;24.99;nan;60438.72;4971427;28;20173;-59
2023/06/16 08:01:04;;;;;;;9.00;5.38;;;;;;;25.21;nan;61197.31;4972739;28;20536;-59
2023/06/16 08:03:30;;;;;;;7.60;5.00;;;;;;;24.87;nan;61336.91;4973035;28;20283;-60
2023/06/16 08:05:57;;;;;;;7.22;4.75;;;;;;;25.20;nan;61676.84;4972989;28;20201;-59
2023/06/16 08:08:27;;;;;;;8.77;5.38;;;;;;;25.13;nan;62038.22;4973049;28;20212;-59
2023/06/16 08:10:58;;;;;;;8.77;5.47;;;;;;;25.59;nan;62011.47;4972886;28;20204;-60
2023/06/16 08:13:24;;;;;;;9.55;5.80;;;;;;;25.66;nan;62111.06;4973018;28;20169;-59
2023/06/16 08:15:50;;;;;;;9.90;6.03;;;;;;;26.26;nan;62218.09;4972470;28;20339;-59
2023/06/16 08:18:17;;;;;;;9.48;5.75;;;;;;;24.64;nan;62189.56;4973241;28;20672;-59
2023/06/16 08:20:44;;;;;;;11.38;6.97;;;;;;;26.65;nan;62358.38;4972828;28;20208;-59
2023/06/16 08:23:10;;;;;;;10.85;6.32;;;;;;;26.70;nan;62359.41;4972792;28;20190;-59
2023/06/16 08:25:35;;;;;;;9.02;5.82;;;;;;;26.86;nan;62423.78;4972645;28;20173;-59
2023/06/16 08:28:01;;;;;;;9.80;6.32;;;;;;;26.81;nan;62390.34;4972453;28;20173;-58
2023/06/16 08:30:26;;;;;;;10.32;6.05;;;;;;;27.28;nan;62544.66;4972471;28;20636;-59
2023/06/16 08:32:53;;;;;;;9.60;6.10;;;;;;;27.18;nan;62502.88;4975350;28;20208;-59
2023/06/16 08:35:18;;;;;;;14.05;7.00;;;;;;;27.43;nan;62601.19;4991597;28;20249;-59
2023/06/16 08:37:43;;;;;;;14.75;6.72;;;;;;;27.53;nan;62549.66;4992155;28;20628;-59
2023/06/16 08:40:10;;;;;;;10.98;7.15;;;;;;;27.48;nan;62530.78;4993054;28;20196;-58
2023/06/16 08:42:41;;;;;;;8.98;6.32;;;;;;;27.15;nan;62578.16;4995605;28;20588;-59
2023/06/16 08:45:06;;;;;;;11.40;6.68;;;;;;;27.46;nan;62557.97;4995159;28;20168;-59
2023/06/16 08:47:34;;;;;;;12.68;6.57;;;;;;;27.07;nan;62621.50;4995587;28;20176;-59
2023/06/16 08:50:00;;;;;;;9.35;6.18;;;;;;;25.91;nan;62379.84;4995256;28;20164;-60
2023/06/16 08:52:28;;;;;;;12.95;6.70;;;;;;;25.72;nan;62293.25;4995470;28;20528;-59
2023/06/16 08:54:58;;;;;;;9.77;6.00;;;;;;;23.47;nan;63819.13;4995421;28;20240;-59
2023/06/16 08:57:24;;;;;;;7.40;4.93;;;;;;;25.95;nan;62295.38;4995171;28;20172;-59
2023/06/16 08:59:55;;;;;;;7.13;4.90;;;;;;;26.50;nan;62465.03;4995333;28;20176;-58
2023/06/16 09:02:21;;;;;;;5.80;4.22;;;;;;;26.66;nan;62587.66;4995322;28;20646;-59
2023/06/16 09:04:47;;;;;;;6.57;4.40;;;;;;;27.07;nan;62500.78;4995203;28;20169;-59
2023/06/16 09:07:19;;;;;;;6.22;4.65;;;;;;;26.97;nan;62646.78;4995033;28;20223;-59
2023/06/16 09:09:45;;;;;;;7.13;4.70;;;;;;;26.96;nan;62524.38;4995352;28;20185;-58
2023/06/16 09:12:11;;;;;;;7.30;4.30;;;;;;;27.21;nan;62753.00;4994933;28;20176;-59
2023/06/16 09:14:38;;;;;;;7.32;4.20;;;;;;;27.03;nan;62540.84;4995479;28;20231;-59
2023/06/16 09:17:09;;;;;;;6.10;3.97;;;;;;;26.86;nan;62424.34;4995223;28;20616;-59
2023/06/16 09:19:48;;;;;;;7.03;4.00;;;;;;;27.01;nan;62813.44;4995641;28;20593;-59
2023/06/16 09:22:16;;;;;;;6.88;4.70;;;;;;;26.86;nan;62536.56;4995780;28;20176;-60
2023/06/16 09:24:42;;;;;;;5.55;4.15;;;;;;;26.75;nan;62519.84;4994855;28;20636;-60
2023/06/16 09:27:08;;;;;;;6.47;4.13;;;;;;;26.93;nan;62508.41;4995199;28;20200;-59
2023/06/16 09:29:33;;;;;;;5.95;3.83;;;;;;;26.97;nan;62570.13;4995546;28;20275;-60
2023/06/16 09:32:09;;;;;;;6.43;4.03;;;;;;;27.28;nan;62542.63;4995202;28;20176;-59
2023/06/16 09:34:36;;;;;;;6.15;3.88;;;;;;;27.05;nan;62561.47;4995112;28;20176;-59
2023/06/16 09:37:05;;;;;;;7.40;4.40;;;;;;;27.24;nan;62703.38;4994792;28;20605;-59
2023/06/16 09:39:31;;;;;;;6.38;4.18;;;;;;;27.42;nan;62657.81;4995076;28;20242;-59
2023/06/16 09:41:57;;;;;;;6.35;4.40;;;;;;;27.30;nan;62628.31;4995248;28;20224;-59
2023/06/16 09:44:26;;;;;;;6.60;4.85;;;;;;;27.00;nan;62494.84;4995284;28;20230;-59
2023/06/16 09:46:53;;;;;;;6.13;4.38;;;;;;;27.02;nan;62552.81;4995499;28;20187;-60
2023/06/16 09:49:24;;;;;;;7.07;4.50;;;;;;;26.35;nan;62781.34;4994862;28;20176;-59
2023/06/16 09:51:57;;;;;;;6.00;4.20;;;;;;;25.51;nan;62602.28;4993472;28;20187;-59
2023/06/16 09:54:26;;;;;;;6.60;4.20;;;;;;;25.33;nan;62418.84;4994636;28;20181;-59
2023/06/16 09:56:58;;;;;;;5.07;3.63;;;;;;;25.18;nan;62342.09;4994582;28;20176;-60
2023/06/16 09:59:26;;;;;;;4.90;3.55;;;;;;;25.40;nan;62364.59;4994394;28;20177;-60
2023/06/16 10:01:54;;;;;;;5.43;3.70;;;;;;;25.29;nan;62289.28;4994509;28;20173;-59
2023/06/16 10:04:22;;;;;;;6.75;4.15;;;;;;;24.58;nan;62072.97;4993956;28;20208;-59
2023/06/16 10:06:56;;;;;;;6.35;3.78;;;;;;;25.11;nan;62294.31;4994563;28;20176;-59
2023/06/16 10:09:27;;;;;;;5.30;3.67;;;;;;;25.33;nan;62327.84;4994727;28;20244;-59
2023/06/16 10:11:55;;;;;;;5.43;3.65;;;;;;;25.42;nan;62291.00;4994805;28;20165;-59
2023/06/16 10:14:26;;;;;;;6.05;3.47;;;;;;;25.89;nan;62409.00;4994112;28;20172;-59
2023/06/16 10:16:54;;;;;;;5.80;3.65;;;;;;;26.07;nan;62371.94;4993957;28;20227;-59
2023/06/16 10:19:21;;;;;;;3.70;3.00;;;;;;;26.05;nan;62379.53;4994176;28;20562;-59
2023/06/16 10:21:49;;;;;;;5.35;3.72;;;;;;;26.04;nan;62409.81;4992375;28;20216;-60
2023/06/16 10:24:15;;;;;;;5.65;3.30;;;;;;;26.34;nan;62465.09;4974213;28;20320;-60
2023/06/16 10:26:41;;;;;;;6.30;3.50;;;;;;;25.93;nan;62397.84;4992588;28;20307;-59
2023/06/16 10:29:07;;;;;;;6.25;3.40;;;;;;;26.46;nan;62467.75;4993955;28;20177;-59
2023/06/16 10:31:33;;;;;;;4.05;2.97;;;;;;;26.87;nan;62611.16;4994693;28;20629;-59
2023/06/16 10:33:59;;;;;;;4.68;3.17;;;;;;;27.01;nan;62549.03;4994337;28;20252;-60
2023/06/16 10:36:31;;;;;;;4.22;3.03;;;;;;;26.60;nan;62530.97;4994150;28;20237;-60
2023/06/16 10:39:08;;;;;;;4.85;3.20;;;;;;;26.64;nan;62519.78;4993869;28;20662;-60
2023/06/16 10:41:33;;;;;;;6.03;3.15;;;;;;;26.70;nan;62505.69;4993817;28;20227;-60
2023/06/16 10:44:23;;;;;;;5.65;3.00;;;;;;;26.75;nan;62622.13;4994244;28;20243;-60
2023/06/16 10:47:04;;;;;;;3.75;3.00;;;;;;;27.36;nan;62656.19;4993949;28;20345;-60
2023/06/16 10:49:30;;;;;;;6.45;2.90;;;;;;;27.14;nan;62532.41;4993939;28;20175;-60
2023/06/16 10:51:58;;;;;;;4.38;2.60;;;;;;;27.45;nan;62795.16;4993466;28;20180;-59
2023/06/16 10:54:32;;;;;;;4.13;2.78;;;;;;;27.58;nan;62742.41;4993734;28;20650;-59
2023/06/16 10:57:07;;;;;;;4.82;3.05;;;;;;;27.50;nan;62690.63;4994054;28;20171;-59
2023/06/16 10:59:51;;;;;;;9.68;2.95;;;;;;;28.06;nan;62701.69;4993684;28;20188;-59
2023/06/16 11:02:19;;;;;;;4.03;2.83;;;;;;;27.99;nan;62720.53;4993622;28;20666;-60
2023/06/16 11:05:13;;;;;;;4.93;2.30;;;;;;;27.11;nan;62704.22;4993270;28;20573;-60
2023/06/16 11:07:42;;;;;;;4.43;2.67;;;;;;;27.07;nan;62629.38;4994086;28;20170;-60
2023/06/16 11:10:09;;;;;;;4.72;2.95;;;;;;;26.94;nan;62680.06;4993449;28;20183;-59
2023/06/16 11:12:35;;;;;;;3.58;2.65;;;;;;;26.78;nan;62486.56;4993536;28;20243;-59
2023/06/16 11:15:03;;;;;;;4.32;2.80;;;;;;;26.54;nan;62506.31;4993316;28;20647;-60
2023/06/16 11:17:29;;;;;;;3.67;2.40;;;;;;;26.77;nan;62663.75;4993457;28;20549;-60
2023/06/16 11:19:55;;;;;;;3.95;2.67;;;;;;;26.99;nan;62677.94;4993513;28;20191;-60
2023/06/16 11:22:31;;;;;;;3.85;2.70;;;;;;;27.45;nan;62590.94;4993207;28;20177;-60
2023/06/16 11:24:56;;;;;;;4.93;2.92;;;;;;;;;;4993548;28;20179;-59
2023/06/16 11:27:22;;;;;;;4.47;3.13;;;;;;;27.76;nan;62790.78;4992767;28;20183;-59
2023/06/16 11:29:48;;;;;;;4.25;3.05;;;;;;;27.87;nan;62806.03;4993034;28;20643;-60
2023/06/16 11:32:17;;;;;;;4.28;3.00;;;;;;;27.81;nan;62655.22;4993370;28;20172;-60
2023/06/16 11:34:42;;;;;;;4.70;3.30;;;;;;;27.62;nan;62704.38;4993451;28;20179;-60
2023/06/16 11:37:07;;;;;;;5.35;3.42;;;;;;;27.67;nan;62665.47;4992832;28;20647;-58
2023/06/16 11:39:43;;;;;;;4.90;3.30;;;;;;;28.03;nan;62774.47;4992643;28;20164;-60
2023/06/16 11:42:16;;;;;;;3.80;2.92;;;;;;;27.88;nan;62834.03;4992419;28;20247;-60
2023/06/16 11:44:42;;;;;;;4.60;3.25;;;;;;;28.23;nan;62710.09;4992921;28;20200;-59
2023/06/16 11:47:11;;;;;;;4.60;3.15;;;;;;;28.44;nan;62784.69;4992392;28;20176;-60